sensor_id;sensor_type;location;lat;lon;timestamp;P1;durP1;ratioP1;P2;durP2;ratioP2
61704;SDS011;47627;48.078;11.522;2024-01-10T00:01:00;89.47;;;42.45;;
61704;SDS011;47627;48.078;11.522;2024-01-10T00:03:25;83.68;;;41.13;;
61704;SDS011;47627;48.078;11.522;2024-01-10T00:05:50;79.57;;;40.63;;
61704;SDS011;47627;48.078;11.522;2024-01-10T00:08:16;79.43;;;39.00;;
61704;SDS011;47627;48.078;11.522;2024-01-10T00:10:42;81.72;;;39.67;;
61704;SDS011;47627;48.078;11.522;2024-01-10T00:13:07;78.88;;;38.80;;
61704;SDS011;47627;48.078;11.522;2024-01-10T00:15:32;80.63;;;39.28;;
61704;SDS011;47627;48.078;11.522;2024-01-10T00:17:58;80.95;;;39.05;;
61704;SDS011;47627;48.078;11.522;2024-01-10T00:20:23;80.95;;;38.35;;
61704;SDS011;47627;48.078;11.522;2024-01-10T00:22:48;82.97;;;40.65;;
61704;SDS011;47627;48.078;11.522;2024-01-10T00:25:13;80.43;;;39.50;;
61704;SDS011;47627;48.078;11.522;2024-01-10T00:27:38;73.57;;;36.85;;
61704;SDS011;47627;48.078;11.522;2024-01-10T00:30:04;80.80;;;39.70;;
61704;SDS011;47627;48.078;11.522;2024-01-10T00:32:30;83.65;;;39.13;;
61704;SDS011;47627;48.078;11.522;2024-01-10T00:34:55;80.13;;;37.70;;
61704;SDS011;47627;48.078;11.522;2024-01-10T00:37:20;81.45;;;37.92;;
61704;SDS011;47627;48.078;11.522;2024-01-10T00:39:46;81.20;;;39.33;;
61704;SDS011;47627;48.078;11.522;2024-01-10T00:42:11;80.38;;;39.15;;
61704;SDS011;47627;48.078;11.522;2024-01-10T00:44:36;77.88;;;37.35;;
61704;SDS011;47627;48.078;11.522;2024-01-10T00:47:01;87.45;;;41.70;;
61704;SDS011;47627;48.078;11.522;2024-01-10T00:49:27;78.95;;;37.45;;
61704;SDS011;47627;48.078;11.522;2024-01-10T00:51:52;78.80;;;37.38;;
61704;SDS011;47627;48.078;11.522;2024-01-10T00:54:17;77.38;;;39.92;;
61704;SDS011;47627;48.078;11.522;2024-01-10T00:56:42;76.70;;;36.40;;
61704;SDS011;47627;48.078;11.522;2024-01-10T00:59:07;74.50;;;35.38;;
61704;SDS011;47627;48.078;11.522;2024-01-10T01:01:33;80.80;;;39.35;;
61704;SDS011;47627;48.078;11.522;2024-01-10T01:03:58;80.78;;;37.95;;
61704;SDS011;47627;48.078;11.522;2024-01-10T01:06:24;76.10;;;36.78;;
61704;SDS011;47627;48.078;11.522;2024-01-10T01:08:49;77.68;;;35.97;;
61704;SDS011;47627;48.078;11.522;2024-01-10T01:11:14;80.63;;;37.40;;
61704;SDS011;47627;48.078;11.522;2024-01-10T01:13:39;84.72;;;39.30;;
61704;SDS011;47627;48.078;11.522;2024-01-10T01:16:06;79.63;;;38.22;;
61704;SDS011;47627;48.078;11.522;2024-01-10T01:18:31;85.22;;;39.33;;
61704;SDS011;47627;48.078;11.522;2024-01-10T01:20:56;98.43;;;44.63;;
61704;SDS011;47627;48.078;11.522;2024-01-10T01:23:21;97.55;;;46.20;;
61704;SDS011;47627;48.078;11.522;2024-01-10T01:25:47;88.95;;;41.85;;
61704;SDS011;47627;48.078;11.522;2024-01-10T01:28:12;88.50;;;40.75;;
61704;SDS011;47627;48.078;11.522;2024-01-10T01:30:37;91.15;;;43.88;;
61704;SDS011;47627;48.078;11.522;2024-01-10T01:33:04;91.65;;;41.20;;
61704;SDS011;47627;48.078;11.522;2024-01-10T01:35:30;82.90;;;39.78;;
61704;SDS011;47627;48.078;11.522;2024-01-10T01:37:55;80.38;;;38.70;;
61704;SDS011;47627;48.078;11.522;2024-01-10T01:40:21;98.80;;;43.65;;
61704;SDS011;47627;48.078;11.522;2024-01-10T01:42:46;86.18;;;39.92;;
61704;SDS011;47627;48.078;11.522;2024-01-10T01:45:12;87.20;;;39.13;;
61704;SDS011;47627;48.078;11.522;2024-01-10T01:47:38;90.80;;;40.80;;
61704;SDS011;47627;48.078;11.522;2024-01-10T01:50:03;84.75;;;40.40;;
61704;SDS011;47627;48.078;11.522;2024-01-10T01:52:29;80.80;;;40.33;;
61704;SDS011;47627;48.078;11.522;2024-01-10T01:54:55;93.65;;;43.30;;
61704;SDS011;47627;48.078;11.522;2024-01-10T01:57:20;87.93;;;43.53;;
61704;SDS011;47627;48.078;11.522;2024-01-10T01:59:45;97.05;;;43.85;;
61704;SDS011;47627;48.078;11.522;2024-01-10T02:02:11;88.45;;;42.20;;
61704;SDS011;47627;48.078;11.522;2024-01-10T02:04:36;87.07;;;41.58;;
61704;SDS011;47627;48.078;11.522;2024-01-10T02:07:01;97.82;;;45.28;;
61704;SDS011;47627;48.078;11.522;2024-01-10T02:09:26;89.90;;;41.03;;
61704;SDS011;47627;48.078;11.522;2024-01-10T02:11:52;95.60;;;43.90;;
61704;SDS011;47627;48.078;11.522;2024-01-10T02:14:17;88.85;;;40.17;;
61704;SDS011;47627;48.078;11.522;2024-01-10T02:16:43;84.82;;;38.67;;
61704;SDS011;47627;48.078;11.522;2024-01-10T02:19:20;89.25;;;41.55;;
61704;SDS011;47627;48.078;11.522;2024-01-10T02:21:46;94.60;;;44.30;;
61704;SDS011;47627;48.078;11.522;2024-01-10T02:24:11;89.70;;;40.72;;
61704;SDS011;47627;48.078;11.522;2024-01-10T02:26:37;87.07;;;40.67;;
61704;SDS011;47627;48.078;11.522;2024-01-10T02:29:02;91.53;;;41.95;;
61704;SDS011;47627;48.078;11.522;2024-01-10T02:31:27;93.07;;;43.25;;
61704;SDS011;47627;48.078;11.522;2024-01-10T02:33:52;89.20;;;43.13;;
61704;SDS011;47627;48.078;11.522;2024-01-10T02:36:17;94.38;;;42.17;;
61704;SDS011;47627;48.078;11.522;2024-01-10T02:38:43;93.18;;;41.97;;
61704;SDS011;47627;48.078;11.522;2024-01-10T02:41:08;89.97;;;42.08;;
61704;SDS011;47627;48.078;11.522;2024-01-10T02:43:33;90.82;;;40.95;;
61704;SDS011;47627;48.078;11.522;2024-01-10T02:45:58;89.63;;;40.60;;
61704;SDS011;47627;48.078;11.522;2024-01-10T02:48:24;90.82;;;42.90;;
61704;SDS011;47627;48.078;11.522;2024-01-10T02:50:50;92.78;;;42.35;;
61704;SDS011;47627;48.078;11.522;2024-01-10T02:53:15;91.55;;;42.10;;
61704;SDS011;47627;48.078;11.522;2024-01-10T02:55:40;85.80;;;37.78;;
61704;SDS011;47627;48.078;11.522;2024-01-10T02:58:06;89.00;;;42.72;;
61704;SDS011;47627;48.078;11.522;2024-01-10T03:00:32;86.95;;;39.65;;
61704;SDS011;47627;48.078;11.522;2024-01-10T03:02:57;94.75;;;43.40;;
61704;SDS011;47627;48.078;11.522;2024-01-10T03:05:22;97.53;;;45.00;;
61704;SDS011;47627;48.078;11.522;2024-01-10T03:07:47;91.90;;;40.28;;
61704;SDS011;47627;48.078;11.522;2024-01-10T03:10:13;87.30;;;41.80;;
61704;SDS011;47627;48.078;11.522;2024-01-10T03:12:38;88.28;;;40.78;;
61704;SDS011;47627;48.078;11.522;2024-01-10T03:15:04;81.55;;;39.63;;
61704;SDS011;47627;48.078;11.522;2024-01-10T03:17:30;84.88;;;40.50;;
61704;SDS011;47627;48.078;11.522;2024-01-10T03:19:58;83.90;;;40.60;;
61704;SDS011;47627;48.078;11.522;2024-01-10T03:22:24;87.45;;;40.90;;
61704;SDS011;47627;48.078;11.522;2024-01-10T03:24:49;85.63;;;40.63;;
61704;SDS011;47627;48.078;11.522;2024-01-10T03:27:14;86.88;;;39.70;;
61704;SDS011;47627;48.078;11.522;2024-01-10T03:29:39;98.78;;;42.92;;
61704;SDS011;47627;48.078;11.522;2024-01-10T03:32:04;86.53;;;40.80;;
61704;SDS011;47627;48.078;11.522;2024-01-10T03:34:30;87.28;;;40.65;;
61704;SDS011;47627;48.078;11.522;2024-01-10T03:36:55;82.68;;;40.80;;
61704;SDS011;47627;48.078;11.522;2024-01-10T03:39:21;83.47;;;39.65;;
61704;SDS011;47627;48.078;11.522;2024-01-10T03:41:46;89.22;;;40.42;;
61704;SDS011;47627;48.078;11.522;2024-01-10T03:44:12;85.75;;;39.58;;
61704;SDS011;47627;48.078;11.522;2024-01-10T03:46:37;83.65;;;38.92;;
61704;SDS011;47627;48.078;11.522;2024-01-10T03:49:03;90.97;;;41.03;;
61704;SDS011;47627;48.078;11.522;2024-01-10T03:51:28;92.78;;;40.55;;
61704;SDS011;47627;48.078;11.522;2024-01-10T03:53:54;86.57;;;40.63;;
61704;SDS011;47627;48.078;11.522;2024-01-10T03:56:20;86.63;;;41.15;;
61704;SDS011;47627;48.078;11.522;2024-01-10T03:58:45;90.57;;;41.80;;
61704;SDS011;47627;48.078;11.522;2024-01-10T04:01:14;83.38;;;40.05;;
61704;SDS011;47627;48.078;11.522;2024-01-10T04:03:39;89.72;;;43.00;;
61704;SDS011;47627;48.078;11.522;2024-01-10T04:06:07;81.68;;;37.92;;
61704;SDS011;47627;48.078;11.522;2024-01-10T04:08:32;82.72;;;40.38;;
61704;SDS011;47627;48.078;11.522;2024-01-10T04:10:58;91.47;;;42.97;;
61704;SDS011;47627;48.078;11.522;2024-01-10T04:13:23;91.03;;;40.83;;
61704;SDS011;47627;48.078;11.522;2024-01-10T04:15:48;88.85;;;39.97;;
61704;SDS011;47627;48.078;11.522;2024-01-10T04:18:14;85.07;;;39.55;;
61704;SDS011;47627;48.078;11.522;2024-01-10T04:20:39;87.70;;;41.15;;
61704;SDS011;47627;48.078;11.522;2024-01-10T04:23:04;90.90;;;40.60;;
61704;SDS011;47627;48.078;11.522;2024-01-10T04:25:30;87.28;;;40.05;;
61704;SDS011;47627;48.078;11.522;2024-01-10T04:27:56;87.55;;;38.30;;
61704;SDS011;47627;48.078;11.522;2024-01-10T04:30:22;82.68;;;38.33;;
61704;SDS011;47627;48.078;11.522;2024-01-10T04:32:47;88.65;;;37.97;;
61704;SDS011;47627;48.078;11.522;2024-01-10T04:35:12;87.63;;;40.10;;
61704;SDS011;47627;48.078;11.522;2024-01-10T04:37:38;81.10;;;37.55;;
61704;SDS011;47627;48.078;11.522;2024-01-10T04:40:03;80.00;;;37.53;;
61704;SDS011;47627;48.078;11.522;2024-01-10T04:42:29;83.72;;;38.30;;
61704;SDS011;47627;48.078;11.522;2024-01-10T04:44:55;83.97;;;37.58;;
61704;SDS011;47627;48.078;11.522;2024-01-10T04:47:20;90.40;;;40.28;;
61704;SDS011;47627;48.078;11.522;2024-01-10T04:49:45;82.82;;;37.28;;
61704;SDS011;47627;48.078;11.522;2024-01-10T04:52:10;83.25;;;38.45;;
61704;SDS011;47627;48.078;11.522;2024-01-10T04:54:36;78.53;;;37.22;;
61704;SDS011;47627;48.078;11.522;2024-01-10T04:57:01;90.82;;;39.50;;
61704;SDS011;47627;48.078;11.522;2024-01-10T04:59:26;80.03;;;36.28;;
61704;SDS011;47627;48.078;11.522;2024-01-10T05:01:51;82.20;;;38.10;;
61704;SDS011;47627;48.078;11.522;2024-01-10T05:04:17;79.97;;;37.83;;
61704;SDS011;47627;48.078;11.522;2024-01-10T05:06:43;78.75;;;36.88;;
61704;SDS011;47627;48.078;11.522;2024-01-10T05:09:08;76.10;;;35.80;;
61704;SDS011;47627;48.078;11.522;2024-01-10T05:11:34;80.95;;;35.88;;
61704;SDS011;47627;48.078;11.522;2024-01-10T05:14:01;66.07;;;33.20;;
61704;SDS011;47627;48.078;11.522;2024-01-10T05:16:26;73.28;;;34.72;;
61704;SDS011;47627;48.078;11.522;2024-01-10T05:18:51;70.68;;;34.03;;
61704;SDS011;47627;48.078;11.522;2024-01-10T05:21:16;77.90;;;36.05;;
61704;SDS011;47627;48.078;11.522;2024-01-10T05:23:42;75.88;;;35.38;;
61704;SDS011;47627;48.078;11.522;2024-01-10T05:26:07;73.20;;;33.65;;
61704;SDS011;47627;48.078;11.522;2024-01-10T05:28:32;72.43;;;32.08;;
61704;SDS011;47627;48.078;11.522;2024-01-10T05:30:58;68.82;;;33.20;;
61704;SDS011;47627;48.078;11.522;2024-01-10T05:33:23;70.05;;;33.08;;
61704;SDS011;47627;48.078;11.522;2024-01-10T05:35:49;71.85;;;33.58;;
61704;SDS011;47627;48.078;11.522;2024-01-10T05:38:14;72.88;;;33.88;;
61704;SDS011;47627;48.078;11.522;2024-01-10T05:40:39;80.28;;;34.50;;
61704;SDS011;47627;48.078;11.522;2024-01-10T05:43:05;75.70;;;34.30;;
61704;SDS011;47627;48.078;11.522;2024-01-10T05:45:32;74.55;;;33.00;;
61704;SDS011;47627;48.078;11.522;2024-01-10T05:47:57;76.90;;;34.28;;
61704;SDS011;47627;48.078;11.522;2024-01-10T05:50:23;85.20;;;37.22;;
61704;SDS011;47627;48.078;11.522;2024-01-10T05:52:49;79.78;;;33.35;;
61704;SDS011;47627;48.078;11.522;2024-01-10T05:55:14;78.35;;;36.45;;
61704;SDS011;47627;48.078;11.522;2024-01-10T05:57:39;79.78;;;34.08;;
61704;SDS011;47627;48.078;11.522;2024-01-10T06:00:05;81.05;;;35.97;;
61704;SDS011;47627;48.078;11.522;2024-01-10T06:02:37;90.22;;;36.67;;
61704;SDS011;47627;48.078;11.522;2024-01-10T06:05:09;83.68;;;37.00;;
61704;SDS011;47627;48.078;11.522;2024-01-10T06:07:35;78.88;;;35.38;;
61704;SDS011;47627;48.078;11.522;2024-01-10T06:10:00;87.28;;;37.42;;
61704;SDS011;47627;48.078;11.522;2024-01-10T06:12:26;87.82;;;36.88;;
61704;SDS011;47627;48.078;11.522;2024-01-10T06:14:52;80.80;;;34.70;;
61704;SDS011;47627;48.078;11.522;2024-01-10T06:17:17;86.30;;;37.70;;
61704;SDS011;47627;48.078;11.522;2024-01-10T06:19:44;79.68;;;35.55;;
61704;SDS011;47627;48.078;11.522;2024-01-10T06:22:09;90.63;;;38.03;;
61704;SDS011;47627;48.078;11.522;2024-01-10T06:24:36;77.45;;;36.75;;
61704;SDS011;47627;48.078;11.522;2024-01-10T06:27:01;86.95;;;35.55;;
61704;SDS011;47627;48.078;11.522;2024-01-10T06:29:26;80.53;;;35.63;;
61704;SDS011;47627;48.078;11.522;2024-01-10T06:31:52;90.75;;;37.97;;
61704;SDS011;47627;48.078;11.522;2024-01-10T06:34:17;85.18;;;37.25;;
61704;SDS011;47627;48.078;11.522;2024-01-10T06:36:42;92.28;;;39.30;;
61704;SDS011;47627;48.078;11.522;2024-01-10T06:39:11;94.53;;;38.88;;
61704;SDS011;47627;48.078;11.522;2024-01-10T06:41:38;81.53;;;36.25;;
61704;SDS011;47627;48.078;11.522;2024-01-10T06:44:03;95.30;;;38.78;;
61704;SDS011;47627;48.078;11.522;2024-01-10T06:46:29;94.43;;;38.45;;
61704;SDS011;47627;48.078;11.522;2024-01-10T06:48:55;82.70;;;35.83;;
61704;SDS011;47627;48.078;11.522;2024-01-10T06:51:21;92.93;;;37.50;;
61704;SDS011;47627;48.078;11.522;2024-01-10T06:53:46;91.20;;;38.35;;
61704;SDS011;47627;48.078;11.522;2024-01-10T06:56:11;88.43;;;36.25;;
61704;SDS011;47627;48.078;11.522;2024-01-10T06:58:36;86.72;;;37.67;;
61704;SDS011;47627;48.078;11.522;2024-01-10T07:01:01;88.55;;;39.50;;
61704;SDS011;47627;48.078;11.522;2024-01-10T07:03:30;93.82;;;39.47;;
61704;SDS011;47627;48.078;11.522;2024-01-10T07:05:55;94.03;;;39.88;;
61704;SDS011;47627;48.078;11.522;2024-01-10T07:15:08;91.78;;;37.88;;
61704;SDS011;47627;48.078;11.522;2024-01-10T07:17:57;105.55;;;40.65;;
61704;SDS011;47627;48.078;11.522;2024-01-10T07:20:27;92.97;;;37.70;;
61704;SDS011;47627;48.078;11.522;2024-01-10T07:22:58;99.13;;;39.60;;
61704;SDS011;47627;48.078;11.522;2024-01-10T07:25:24;93.85;;;38.72;;
61704;SDS011;47627;48.078;11.522;2024-01-10T07:27:50;94.95;;;38.70;;
61704;SDS011;47627;48.078;11.522;2024-01-10T07:30:16;96.85;;;38.15;;
61704;SDS011;47627;48.078;11.522;2024-01-10T07:35:06;91.25;;;38.75;;
61704;SDS011;47627;48.078;11.522;2024-01-10T07:37:35;96.15;;;37.92;;
61704;SDS011;47627;48.078;11.522;2024-01-10T07:40:00;84.80;;;37.08;;
61704;SDS011;47627;48.078;11.522;2024-01-10T07:42:25;88.40;;;37.05;;
61704;SDS011;47627;48.078;11.522;2024-01-10T07:44:50;90.32;;;37.25;;
61704;SDS011;47627;48.078;11.522;2024-01-10T07:47:15;83.88;;;36.92;;
61704;SDS011;47627;48.078;11.522;2024-01-10T07:49:41;97.15;;;39.95;;
61704;SDS011;47627;48.078;11.522;2024-01-10T07:52:06;82.78;;;35.97;;
61704;SDS011;47627;48.078;11.522;2024-01-10T07:54:32;86.35;;;37.92;;
61704;SDS011;47627;48.078;11.522;2024-01-10T07:56:57;88.00;;;37.70;;
61704;SDS011;47627;48.078;11.522;2024-01-10T07:59:23;81.43;;;35.47;;
61704;SDS011;47627;48.078;11.522;2024-01-10T08:01:55;87.95;;;36.60;;
61704;SDS011;47627;48.078;11.522;2024-01-10T08:04:24;84.57;;;34.75;;
61704;SDS011;47627;48.078;11.522;2024-01-10T08:06:50;82.05;;;36.63;;
61704;SDS011;47627;48.078;11.522;2024-01-10T08:09:15;86.00;;;37.40;;
61704;SDS011;47627;48.078;11.522;2024-01-10T08:11:40;83.07;;;36.72;;
61704;SDS011;47627;48.078;11.522;2024-01-10T08:14:06;87.10;;;40.70;;
61704;SDS011;47627;48.078;11.522;2024-01-10T08:16:31;86.43;;;39.10;;
61704;SDS011;47627;48.078;11.522;2024-01-10T08:18:57;84.78;;;37.60;;
61704;SDS011;47627;48.078;11.522;2024-01-10T08:21:24;82.55;;;38.78;;
61704;SDS011;47627;48.078;11.522;2024-01-10T08:23:50;85.72;;;38.70;;
61704;SDS011;47627;48.078;11.522;2024-01-10T08:26:15;93.15;;;39.22;;
61704;SDS011;47627;48.078;11.522;2024-01-10T08:28:40;92.00;;;41.80;;
61704;SDS011;47627;48.078;11.522;2024-01-10T08:31:06;88.18;;;39.72;;
61704;SDS011;47627;48.078;11.522;2024-01-10T08:33:32;88.97;;;41.50;;
61704;SDS011;47627;48.078;11.522;2024-01-10T08:35:57;95.15;;;40.17;;
61704;SDS011;47627;48.078;11.522;2024-01-10T08:38:23;85.35;;;39.83;;
61704;SDS011;47627;48.078;11.522;2024-01-10T08:40:49;81.43;;;38.88;;
61704;SDS011;47627;48.078;11.522;2024-01-10T08:43:14;81.20;;;37.58;;
61704;SDS011;47627;48.078;11.522;2024-01-10T08:45:39;82.55;;;38.47;;
61704;SDS011;47627;48.078;11.522;2024-01-10T08:48:04;87.88;;;41.95;;
61704;SDS011;47627;48.078;11.522;2024-01-10T08:50:31;88.75;;;40.88;;
61704;SDS011;47627;48.078;11.522;2024-01-10T08:52:56;91.20;;;41.47;;
61704;SDS011;47627;48.078;11.522;2024-01-10T08:55:22;87.38;;;41.78;;
61704;SDS011;47627;48.078;11.522;2024-01-10T08:57:47;88.53;;;41.28;;
61704;SDS011;47627;48.078;11.522;2024-01-10T09:00:14;86.68;;;40.22;;
61704;SDS011;47627;48.078;11.522;2024-01-10T09:02:40;84.55;;;40.55;;
61704;SDS011;47627;48.078;11.522;2024-01-10T09:05:05;82.60;;;39.50;;
61704;SDS011;47627;48.078;11.522;2024-01-10T09:07:33;81.13;;;39.13;;
61704;SDS011;47627;48.078;11.522;2024-01-10T09:09:58;74.55;;;38.03;;
61704;SDS011;47627;48.078;11.522;2024-01-10T09:12:23;79.80;;;37.47;;
61704;SDS011;47627;48.078;11.522;2024-01-10T09:14:48;79.00;;;39.92;;
61704;SDS011;47627;48.078;11.522;2024-01-10T09:17:14;87.00;;;42.20;;
61704;SDS011;47627;48.078;11.522;2024-01-10T09:19:39;81.65;;;39.15;;
61704;SDS011;47627;48.078;11.522;2024-01-10T09:22:04;85.95;;;40.35;;
61704;SDS011;47627;48.078;11.522;2024-01-10T09:24:30;90.03;;;42.70;;
61704;SDS011;47627;48.078;11.522;2024-01-10T09:26:55;95.75;;;44.53;;
61704;SDS011;47627;48.078;11.522;2024-01-10T09:29:21;97.82;;;42.83;;
61704;SDS011;47627;48.078;11.522;2024-01-10T09:31:46;85.53;;;42.08;;
61704;SDS011;47627;48.078;11.522;2024-01-10T09:34:14;94.28;;;41.75;;
61704;SDS011;47627;48.078;11.522;2024-01-10T09:36:43;90.75;;;41.47;;
61704;SDS011;47627;48.078;11.522;2024-01-10T09:39:08;90.85;;;42.85;;
61704;SDS011;47627;48.078;11.522;2024-01-10T09:41:40;91.88;;;43.97;;
61704;SDS011;47627;48.078;11.522;2024-01-10T09:44:10;87.63;;;42.10;;
61704;SDS011;47627;48.078;11.522;2024-01-10T09:46:36;91.38;;;42.72;;
61704;SDS011;47627;48.078;11.522;2024-01-10T09:49:03;86.82;;;42.33;;
61704;SDS011;47627;48.078;11.522;2024-01-10T09:51:29;86.43;;;40.80;;
61704;SDS011;47627;48.078;11.522;2024-01-10T09:53:54;88.88;;;41.85;;
61704;SDS011;47627;48.078;11.522;2024-01-10T09:56:21;88.05;;;42.08;;
61704;SDS011;47627;48.078;11.522;2024-01-10T09:58:47;85.47;;;42.05;;
61704;SDS011;47627;48.078;11.522;2024-01-10T10:01:13;89.63;;;41.85;;
61704;SDS011;47627;48.078;11.522;2024-01-10T10:03:39;87.65;;;42.47;;
61704;SDS011;47627;48.078;11.522;2024-01-10T10:06:07;83.55;;;41.00;;
61704;SDS011;47627;48.078;11.522;2024-01-10T10:08:32;92.82;;;42.60;;
61704;SDS011;47627;48.078;11.522;2024-01-10T10:10:58;86.75;;;41.28;;
61704;SDS011;47627;48.078;11.522;2024-01-10T10:13:27;83.55;;;39.85;;
61704;SDS011;47627;48.078;11.522;2024-01-10T10:18:27;85.60;;;41.15;;
61704;SDS011;47627;48.078;11.522;2024-01-10T10:21:12;82.05;;;39.55;;
61704;SDS011;47627;48.078;11.522;2024-01-10T10:23:38;83.18;;;40.45;;
61704;SDS011;47627;48.078;11.522;2024-01-10T10:26:16;91.30;;;41.85;;
61704;SDS011;47627;48.078;11.522;2024-01-10T10:28:48;86.57;;;41.05;;
61704;SDS011;47627;48.078;11.522;2024-01-10T10:31:14;90.45;;;43.40;;
61704;SDS011;47627;48.078;11.522;2024-01-10T10:33:40;81.38;;;41.20;;
61704;SDS011;47627;48.078;11.522;2024-01-10T10:39:08;81.85;;;40.00;;
61704;SDS011;47627;48.078;11.522;2024-01-10T10:41:38;81.75;;;40.38;;
61704;SDS011;47627;48.078;11.522;2024-01-10T10:44:03;87.18;;;42.00;;
61704;SDS011;47627;48.078;11.522;2024-01-10T10:46:31;87.97;;;43.28;;
61704;SDS011;47627;48.078;11.522;2024-01-10T10:48:57;83.72;;;41.17;;
61704;SDS011;47627;48.078;11.522;2024-01-10T10:51:27;85.30;;;41.40;;
61704;SDS011;47627;48.078;11.522;2024-01-10T10:53:57;84.22;;;42.50;;
61704;SDS011;47627;48.078;11.522;2024-01-10T10:56:24;83.47;;;41.75;;
61704;SDS011;47627;48.078;11.522;2024-01-10T10:58:51;83.75;;;41.00;;
61704;SDS011;47627;48.078;11.522;2024-01-10T11:01:18;75.70;;;39.30;;
61704;SDS011;47627;48.078;11.522;2024-01-10T11:03:44;75.53;;;38.83;;
61704;SDS011;47627;48.078;11.522;2024-01-10T11:06:12;79.95;;;40.13;;
61704;SDS011;47627;48.078;11.522;2024-01-10T11:11:04;76.28;;;38.65;;
61704;SDS011;47627;48.078;11.522;2024-01-10T11:19:43;79.00;;;41.50;;
61704;SDS011;47627;48.078;11.522;2024-01-10T11:24:58;82.65;;;40.80;;
61704;SDS011;47627;48.078;11.522;2024-01-10T11:27:23;79.97;;;41.20;;
61704;SDS011;47627;48.078;11.522;2024-01-10T11:29:54;82.47;;;41.95;;
61704;SDS011;47627;48.078;11.522;2024-01-10T11:32:22;80.05;;;40.92;;
61704;SDS011;47627;48.078;11.522;2024-01-10T11:37:18;80.25;;;40.75;;
61704;SDS011;47627;48.078;11.522;2024-01-10T11:39:43;80.50;;;40.70;;
61704;SDS011;47627;48.078;11.522;2024-01-10T11:42:09;83.85;;;41.47;;
61704;SDS011;47627;48.078;11.522;2024-01-10T11:44:34;84.60;;;42.25;;
61704;SDS011;47627;48.078;11.522;2024-01-10T11:47:01;77.32;;;40.58;;
61704;SDS011;47627;48.078;11.522;2024-01-10T11:49:28;79.47;;;40.30;;
61704;SDS011;47627;48.078;11.522;2024-01-10T11:51:55;77.95;;;40.22;;
61704;SDS011;47627;48.078;11.522;2024-01-10T11:54:40;73.53;;;39.33;;
61704;SDS011;47627;48.078;11.522;2024-01-10T11:57:10;76.78;;;40.80;;
61704;SDS011;47627;48.078;11.522;2024-01-10T11:59:35;84.20;;;43.45;;
61704;SDS011;47627;48.078;11.522;2024-01-10T12:02:02;85.43;;;43.63;;
61704;SDS011;47627;48.078;11.522;2024-01-10T12:04:29;86.30;;;44.30;;
61704;SDS011;47627;48.078;11.522;2024-01-10T12:06:55;83.70;;;41.60;;
61704;SDS011;47627;48.078;11.522;2024-01-10T12:09:20;81.68;;;40.40;;
61704;SDS011;47627;48.078;11.522;2024-01-10T12:11:46;80.43;;;42.00;;
61704;SDS011;47627;48.078;11.522;2024-01-10T12:14:11;81.25;;;39.42;;
61704;SDS011;47627;48.078;11.522;2024-01-10T12:16:42;84.63;;;42.15;;
61704;SDS011;47627;48.078;11.522;2024-01-10T12:19:07;80.32;;;41.42;;
61704;SDS011;47627;48.078;11.522;2024-01-10T12:21:33;78.90;;;41.30;;
61704;SDS011;47627;48.078;11.522;2024-01-10T12:23:59;79.07;;;39.33;;
61704;SDS011;47627;48.078;11.522;2024-01-10T12:26:24;74.03;;;39.60;;
61704;SDS011;47627;48.078;11.522;2024-01-10T12:28:56;84.30;;;40.08;;
61704;SDS011;47627;48.078;11.522;2024-01-10T12:31:21;83.95;;;41.90;;
61704;SDS011;47627;48.078;11.522;2024-01-10T12:36:38;81.63;;;43.00;;
61704;SDS011;47627;48.078;11.522;2024-01-10T12:39:03;90.35;;;43.90;;
61704;SDS011;47627;48.078;11.522;2024-01-10T12:41:31;89.25;;;44.90;;
61704;SDS011;47627;48.078;11.522;2024-01-10T12:43:58;82.97;;;43.10;;
61704;SDS011;47627;48.078;11.522;2024-01-10T12:46:25;87.00;;;44.10;;
61704;SDS011;47627;48.078;11.522;2024-01-10T12:51:26;89.43;;;43.25;;
61704;SDS011;47627;48.078;11.522;2024-01-10T12:53:52;79.97;;;41.15;;
61704;SDS011;47627;48.078;11.522;2024-01-10T12:56:18;81.70;;;42.08;;
61704;SDS011;47627;48.078;11.522;2024-01-10T12:58:43;86.07;;;42.65;;
61704;SDS011;47627;48.078;11.522;2024-01-10T13:01:09;88.88;;;45.20;;
61704;SDS011;47627;48.078;11.522;2024-01-10T13:03:34;88.22;;;43.53;;
61704;SDS011;47627;48.078;11.522;2024-01-10T13:05:59;86.15;;;42.30;;
61704;SDS011;47627;48.078;11.522;2024-01-10T13:08:24;81.32;;;43.15;;
61704;SDS011;47627;48.078;11.522;2024-01-10T13:10:50;81.70;;;42.15;;
61704;SDS011;47627;48.078;11.522;2024-01-10T13:13:15;81.53;;;42.47;;
61704;SDS011;47627;48.078;11.522;2024-01-10T13:15:42;88.63;;;42.42;;
61704;SDS011;47627;48.078;11.522;2024-01-10T13:18:07;81.13;;;43.05;;
61704;SDS011;47627;48.078;11.522;2024-01-10T13:20:37;80.57;;;42.75;;
61704;SDS011;47627;48.078;11.522;2024-01-10T13:29:42;86.60;;;44.25;;
61704;SDS011;47627;48.078;11.522;2024-01-10T13:32:08;82.55;;;42.10;;
61704;SDS011;47627;48.078;11.522;2024-01-10T13:34:35;90.18;;;44.33;;
61704;SDS011;47627;48.078;11.522;2024-01-10T13:37:00;83.28;;;43.55;;
61704;SDS011;47627;48.078;11.522;2024-01-10T13:42:40;90.55;;;44.75;;
61704;SDS011;47627;48.078;11.522;2024-01-10T13:45:06;86.15;;;44.50;;
61704;SDS011;47627;48.078;11.522;2024-01-10T13:47:34;87.63;;;45.33;;
61704;SDS011;47627;48.078;11.522;2024-01-10T13:49:59;87.13;;;43.72;;
61704;SDS011;47627;48.078;11.522;2024-01-10T13:52:25;89.28;;;45.25;;
61704;SDS011;47627;48.078;11.522;2024-01-10T13:54:50;89.53;;;44.33;;
61704;SDS011;47627;48.078;11.522;2024-01-10T13:57:16;85.28;;;42.88;;
61704;SDS011;47627;48.078;11.522;2024-01-10T13:59:41;88.88;;;43.53;;
61704;SDS011;47627;48.078;11.522;2024-01-10T14:02:06;95.63;;;46.42;;
61704;SDS011;47627;48.078;11.522;2024-01-10T14:04:32;97.18;;;47.33;;
61704;SDS011;47627;48.078;11.522;2024-01-10T14:06:58;96.45;;;49.60;;
61704;SDS011;47627;48.078;11.522;2024-01-10T14:09:23;100.60;;;47.65;;
61704;SDS011;47627;48.078;11.522;2024-01-10T14:11:48;92.57;;;47.70;;
61704;SDS011;47627;48.078;11.522;2024-01-10T14:14:15;87.78;;;45.35;;
61704;SDS011;47627;48.078;11.522;2024-01-10T14:16:40;97.57;;;47.20;;
61704;SDS011;47627;48.078;11.522;2024-01-10T14:19:06;94.13;;;47.40;;
61704;SDS011;47627;48.078;11.522;2024-01-10T14:21:31;94.60;;;46.88;;
61704;SDS011;47627;48.078;11.522;2024-01-10T14:23:57;94.85;;;45.75;;
61704;SDS011;47627;48.078;11.522;2024-01-10T14:29:50;93.40;;;46.28;;
61704;SDS011;47627;48.078;11.522;2024-01-10T14:32:15;94.10;;;47.30;;
61704;SDS011;47627;48.078;11.522;2024-01-10T14:34:41;93.13;;;44.65;;
61704;SDS011;47627;48.078;11.522;2024-01-10T14:37:06;93.80;;;45.45;;
61704;SDS011;47627;48.078;11.522;2024-01-10T14:39:32;89.65;;;43.45;;
61704;SDS011;47627;48.078;11.522;2024-01-10T14:41:58;96.13;;;45.90;;
61704;SDS011;47627;48.078;11.522;2024-01-10T14:44:23;93.55;;;44.42;;
61704;SDS011;47627;48.078;11.522;2024-01-10T14:46:48;94.75;;;44.38;;
61704;SDS011;47627;48.078;11.522;2024-01-10T14:49:13;90.30;;;44.58;;